createdAt,value
2019-01-16T13:04:50.959Z,38.70
2019-01-16T13:07:37.251Z,38.60
2019-01-16T13:10:18.840Z,38.70
2019-01-16T13:12:58.107Z,38.90
2019-01-16T13:15:32.523Z,39.00
2019-01-16T13:18:02.804Z,39.00
2019-01-16T13:20:33.188Z,39.20
2019-01-16T13:23:04.583Z,39.20
2019-01-16T13:25:35.623Z,38.90
2019-01-16T13:28:06.780Z,39.00
2019-01-16T13:30:38.636Z,38.70
2019-01-16T13:33:10.200Z,38.40
2019-01-16T13:35:40.710Z,38.50
2019-01-16T13:38:11.823Z,38.90
2019-01-16T13:40:43.401Z,38.80
2019-01-16T13:43:14.970Z,39.10
2019-01-16T13:45:46.058Z,39.00
2019-01-16T13:48:17.139Z,39.20
2019-01-16T13:50:47.573Z,39.00
2019-01-16T13:53:18.417Z,39.00
2019-01-16T13:55:49.739Z,38.80
2019-01-16T13:58:21.740Z,38.80
2019-01-16T14:00:52.358Z,39.00
2019-01-16T14:03:25.568Z,39.00
2019-01-16T14:05:56.154Z,38.90
2019-01-16T14:08:26.469Z,38.40
2019-01-16T14:10:57.519Z,38.50
2019-01-16T14:13:28.479Z,38.50
2019-01-16T14:16:01.269Z,38.00
2019-01-16T14:18:31.898Z,38.10
2019-01-16T14:21:01.590Z,38.20
2019-01-16T14:23:32.872Z,38.10
2019-01-16T14:26:03.487Z,38.20
2019-01-16T14:28:34.700Z,38.40
2019-01-16T14:31:06.387Z,38.00
2019-01-16T14:33:37.592Z,38.10
2019-01-16T14:36:08.363Z,38.20
2019-01-16T14:38:39.686Z,38.20
2019-01-16T14:41:11.139Z,38.00
2019-01-16T14:43:41.986Z,38.20
2019-01-16T14:46:13.412Z,38.20
2019-01-16T14:48:44.692Z,38.40
2019-01-16T14:51:15.589Z,38.60
2019-01-16T14:53:46.553Z,38.60
2019-01-16T14:56:17.312Z,38.40
2019-01-16T14:58:48.069Z,38.20
2019-01-16T15:01:19.340Z,38.00
2019-01-16T15:03:50.801Z,38.00
2019-01-16T15:06:23.182Z,38.00
2019-01-16T15:08:54.013Z,38.30
2019-01-16T15:11:24.652Z,38.20
2019-01-16T15:13:54.855Z,38.30
2019-01-16T15:16:25.985Z,39.10
2019-01-16T15:18:57.077Z,38.10
2019-01-16T15:21:27.098Z,38.30
2019-01-16T15:23:58.396Z,38.70
